Terminal Aerodrome Forecast
Issued by NWS Albany, NY

Home | Current Version | Previous Version | Text Only | Print | Product List | Glossary On
Versions: 1 2 3 4 5 6 7 8 9 10 11 12 13 14 15 16 17 18 19 20 21 22
000
FTUS41 KALY 221137
TAFALB
TAF
KALB 221137Z 2212/2312 35004KT 3/4SM BR VCSH OVC003
      TEMPO 2212/2215 2SM BR OVC006
     FM221500 VRB03KT 2SM BR VCSH OVC008
     FM222000 11005KT 1SM -RA BR OVC007
     FM230300 16007KT 2SM BR VCSH OVC006=

USA.gov is the U.S. government's official web portal to all federal, state and local government web resources and services.